sensor_id;sensor_type;location;lat;lon;timestamp;temperature;humidity
13123;DHT22;6627;50.920;12.050;2022-12-10T00:01:05;2.10;99.90
13123;DHT22;6627;50.920;12.050;2022-12-10T00:03:35;2.10;99.90
13123;DHT22;6627;50.920;12.050;2022-12-10T00:06:05;2.10;99.90
13123;DHT22;6627;50.920;12.050;2022-12-10T00:08:34;2.10;99.90
13123;DHT22;6627;50.920;12.050;2022-12-10T00:11:03;2.10;99.90
13123;DHT22;6627;50.920;12.050;2022-12-10T00:13:33;2.10;99.90
13123;DHT22;6627;50.920;12.050;2022-12-10T00:16:04;2.10;99.90
13123;DHT22;6627;50.920;12.050;2022-12-10T00:18:34;2.10;99.90
13123;DHT22;6627;50.920;12.050;2022-12-10T00:21:02;2.10;99.90
13123;DHT22;6627;50.920;12.050;2022-12-10T00:23:32;2.10;99.90
13123;DHT22;6627;50.920;12.050;2022-12-10T00:26:02;2.10;99.90
13123;DHT22;6627;50.920;12.050;2022-12-10T00:28:30;2.10;99.90
13123;DHT22;6627;50.920;12.050;2022-12-10T00:31:05;2.10;99.90
13123;DHT22;6627;50.920;12.050;2022-12-10T00:33:34;2.10;99.90
13123;DHT22;6627;50.920;12.050;2022-12-10T00:36:03;2.10;99.90
13123;DHT22;6627;50.920;12.050;2022-12-10T00:38:32;2.10;99.90
13123;DHT22;6627;50.920;12.050;2022-12-10T00:41:00;2.10;99.90
13123;DHT22;6627;50.920;12.050;2022-12-10T00:43:30;2.10;99.90
13123;DHT22;6627;50.920;12.050;2022-12-10T00:45:58;2.10;99.90
13123;DHT22;6627;50.920;12.050;2022-12-10T00:48:27;2.10;99.90
13123;DHT22;6627;50.920;12.050;2022-12-10T00:50:56;2.10;99.90
13123;DHT22;6627;50.920;12.050;2022-12-10T00:53:26;2.10;99.90
13123;DHT22;6627;50.920;12.050;2022-12-10T00:55:56;2.10;99.90
13123;DHT22;6627;50.920;12.050;2022-12-10T00:58:27;2.10;99.90
13123;DHT22;6627;50.920;12.050;2022-12-10T01:01:07;2.10;99.90
13123;DHT22;6627;50.920;12.050;2022-12-10T01:03:37;2.10;99.90
13123;DHT22;6627;50.920;12.050;2022-12-10T01:06:10;2.00;99.90
13123;DHT22;6627;50.920;12.050;2022-12-10T01:08:40;2.10;99.90
13123;DHT22;6627;50.920;12.050;2022-12-10T01:11:08;2.00;99.90
13123;DHT22;6627;50.920;12.050;2022-12-10T01:13:37;2.00;99.90
13123;DHT22;6627;50.920;12.050;2022-12-10T01:16:13;2.00;99.90
13123;DHT22;6627;50.920;12.050;2022-12-10T01:18:43;2.00;99.90
13123;DHT22;6627;50.920;12.050;2022-12-10T01:21:16;2.00;99.90
13123;DHT22;6627;50.920;12.050;2022-12-10T01:23:48;2.00;99.90
13123;DHT22;6627;50.920;12.050;2022-12-10T01:26:18;2.00;99.90
13123;DHT22;6627;50.920;12.050;2022-12-10T01:28:48;2.00;99.90
13123;DHT22;6627;50.920;12.050;2022-12-10T01:31:18;2.00;99.90
13123;DHT22;6627;50.920;12.050;2022-12-10T01:33:49;2.00;99.90
13123;DHT22;6627;50.920;12.050;2022-12-10T01:36:20;2.00;99.90
13123;DHT22;6627;50.920;12.050;2022-12-10T01:38:50;1.90;99.90
13123;DHT22;6627;50.920;12.050;2022-12-10T01:41:20;1.90;99.90
13123;DHT22;6627;50.920;12.050;2022-12-10T01:43:53;1.90;99.90
13123;DHT22;6627;50.920;12.050;2022-12-10T01:46:23;1.90;99.90
13123;DHT22;6627;50.920;12.050;2022-12-10T01:48:53;1.90;99.90
13123;DHT22;6627;50.920;12.050;2022-12-10T01:51:23;1.90;99.90
13123;DHT22;6627;50.920;12.050;2022-12-10T01:53:54;1.90;99.90
13123;DHT22;6627;50.920;12.050;2022-12-10T01:56:23;1.80;99.90
13123;DHT22;6627;50.920;12.050;2022-12-10T01:58:54;1.70;99.90
13123;DHT22;6627;50.920;12.050;2022-12-10T02:01:28;1.70;99.90
13123;DHT22;6627;50.920;12.050;2022-12-10T02:04:15;1.80;99.90
13123;DHT22;6627;50.920;12.050;2022-12-10T02:06:58;1.80;99.90
13123;DHT22;6627;50.920;12.050;2022-12-10T02:09:35;1.80;99.90
13123;DHT22;6627;50.920;12.050;2022-12-10T02:12:13;1.80;99.90
13123;DHT22;6627;50.920;12.050;2022-12-10T02:14:55;1.80;99.90
13123;DHT22;6627;50.920;12.050;2022-12-10T02:17:30;1.80;99.90
13123;DHT22;6627;50.920;12.050;2022-12-10T02:20:06;1.80;99.90
13123;DHT22;6627;50.920;12.050;2022-12-10T02:22:41;1.80;99.90
13123;DHT22;6627;50.920;12.050;2022-12-10T02:25:14;1.80;99.90
13123;DHT22;6627;50.920;12.050;2022-12-10T02:27:53;1.80;99.90
13123;DHT22;6627;50.920;12.050;2022-12-10T02:30:34;1.80;99.90
13123;DHT22;6627;50.920;12.050;2022-12-10T02:33:05;1.80;99.90
13123;DHT22;6627;50.920;12.050;2022-12-10T02:35:36;1.80;99.90
13123;DHT22;6627;50.920;12.050;2022-12-10T02:38:11;1.80;99.90
13123;DHT22;6627;50.920;12.050;2022-12-10T02:40:46;1.80;99.90
13123;DHT22;6627;50.920;12.050;2022-12-10T02:43:17;1.70;99.90
13123;DHT22;6627;50.920;12.050;2022-12-10T02:45:46;1.70;99.90
13123;DHT22;6627;50.920;12.050;2022-12-10T02:48:14;1.70;99.90
13123;DHT22;6627;50.920;12.050;2022-12-10T02:50:41;1.70;99.90
13123;DHT22;6627;50.920;12.050;2022-12-10T02:53:08;1.70;99.90
13123;DHT22;6627;50.920;12.050;2022-12-10T02:55:46;1.70;99.90
13123;DHT22;6627;50.920;12.050;2022-12-10T02:58:29;1.70;99.90
13123;DHT22;6627;50.920;12.050;2022-12-10T03:01:12;1.70;99.90
13123;DHT22;6627;50.920;12.050;2022-12-10T03:03:50;1.70;99.90
13123;DHT22;6627;50.920;12.050;2022-12-10T03:06:27;1.70;99.90
13123;DHT22;6627;50.920;12.050;2022-12-10T03:09:05;1.70;99.90
13123;DHT22;6627;50.920;12.050;2022-12-10T03:11:37;1.70;99.90
13123;DHT22;6627;50.920;12.050;2022-12-10T03:14:13;1.70;99.90
13123;DHT22;6627;50.920;12.050;2022-12-10T03:16:51;1.70;99.90
13123;DHT22;6627;50.920;12.050;2022-12-10T03:19:25;1.70;99.90
13123;DHT22;6627;50.920;12.050;2022-12-10T03:21:58;1.60;99.90
13123;DHT22;6627;50.920;12.050;2022-12-10T03:24:30;1.60;99.90
13123;DHT22;6627;50.920;12.050;2022-12-10T03:26:59;1.60;99.90
13123;DHT22;6627;50.920;12.050;2022-12-10T03:29:30;1.60;99.90
13123;DHT22;6627;50.920;12.050;2022-12-10T03:32:03;1.60;99.90
13123;DHT22;6627;50.920;12.050;2022-12-10T03:34:32;1.60;99.90
13123;DHT22;6627;50.920;12.050;2022-12-10T03:37:00;1.60;99.90
13123;DHT22;6627;50.920;12.050;2022-12-10T03:39:28;1.50;99.90
13123;DHT22;6627;50.920;12.050;2022-12-10T03:41:56;1.60;99.90
13123;DHT22;6627;50.920;12.050;2022-12-10T03:44:30;1.60;99.90
13123;DHT22;6627;50.920;12.050;2022-12-10T03:46:58;1.60;99.90
13123;DHT22;6627;50.920;12.050;2022-12-10T03:49:28;1.60;99.90
13123;DHT22;6627;50.920;12.050;2022-12-10T03:51:55;1.60;99.90
13123;DHT22;6627;50.920;12.050;2022-12-10T03:54:23;1.50;99.90
13123;DHT22;6627;50.920;12.050;2022-12-10T03:56:50;1.60;99.90
13123;DHT22;6627;50.920;12.050;2022-12-10T03:59:17;1.60;99.90
13123;DHT22;6627;50.920;12.050;2022-12-10T04:01:45;1.50;99.90
13123;DHT22;6627;50.920;12.050;2022-12-10T04:04:12;1.60;99.90
13123;DHT22;6627;50.920;12.050;2022-12-10T04:06:41;1.60;99.90
13123;DHT22;6627;50.920;12.050;2022-12-10T04:09:09;1.50;99.90
13123;DHT22;6627;50.920;12.050;2022-12-10T04:11:38;1.50;99.90
13123;DHT22;6627;50.920;12.050;2022-12-10T04:14:07;1.50;99.90
13123;DHT22;6627;50.920;12.050;2022-12-10T04:16:53;1.50;99.90
13123;DHT22;6627;50.920;12.050;2022-12-10T04:19:21;1.50;99.90
13123;DHT22;6627;50.920;12.050;2022-12-10T04:21:50;1.50;99.90
13123;DHT22;6627;50.920;12.050;2022-12-10T04:24:36;1.50;99.90
13123;DHT22;6627;50.920;12.050;2022-12-10T04:27:23;1.50;99.90
13123;DHT22;6627;50.920;12.050;2022-12-10T04:29:52;1.50;99.90
13123;DHT22;6627;50.920;12.050;2022-12-10T04:32:21;1.50;99.90
13123;DHT22;6627;50.920;12.050;2022-12-10T04:34:49;1.50;99.90
13123;DHT22;6627;50.920;12.050;2022-12-10T04:37:18;1.60;99.90
13123;DHT22;6627;50.920;12.050;2022-12-10T04:39:47;1.50;99.90
13123;DHT22;6627;50.920;12.050;2022-12-10T04:42:16;1.50;99.90
13123;DHT22;6627;50.920;12.050;2022-12-10T04:44:43;1.40;99.90
13123;DHT22;6627;50.920;12.050;2022-12-10T04:47:11;1.50;99.90
13123;DHT22;6627;50.920;12.050;2022-12-10T04:49:39;1.40;99.90
13123;DHT22;6627;50.920;12.050;2022-12-10T04:52:07;1.50;99.90
13123;DHT22;6627;50.920;12.050;2022-12-10T04:54:39;1.50;99.90
13123;DHT22;6627;50.920;12.050;2022-12-10T04:57:07;1.40;99.90
13123;DHT22;6627;50.920;12.050;2022-12-10T04:59:35;1.40;99.90
13123;DHT22;6627;50.920;12.050;2022-12-10T05:02:03;1.40;99.90
13123;DHT22;6627;50.920;12.050;2022-12-10T05:04:30;1.40;99.90
13123;DHT22;6627;50.920;12.050;2022-12-10T05:06:58;1.40;99.90
13123;DHT22;6627;50.920;12.050;2022-12-10T05:09:25;1.40;99.90
13123;DHT22;6627;50.920;12.050;2022-12-10T05:11:54;1.40;99.90
13123;DHT22;6627;50.920;12.050;2022-12-10T05:14:21;1.40;99.90
13123;DHT22;6627;50.920;12.050;2022-12-10T05:16:49;1.40;99.90
13123;DHT22;6627;50.920;12.050;2022-12-10T05:19:17;1.40;99.90
13123;DHT22;6627;50.920;12.050;2022-12-10T05:21:47;1.40;99.90
13123;DHT22;6627;50.920;12.050;2022-12-10T05:24:39;1.40;99.90
13123;DHT22;6627;50.920;12.050;2022-12-10T05:27:07;1.40;99.90
13123;DHT22;6627;50.920;12.050;2022-12-10T05:29:34;1.30;99.90
13123;DHT22;6627;50.920;12.050;2022-12-10T05:32:03;1.30;99.90
13123;DHT22;6627;50.920;12.050;2022-12-10T05:34:31;1.40;99.90
13123;DHT22;6627;50.920;12.050;2022-12-10T05:36:58;1.40;99.90
13123;DHT22;6627;50.920;12.050;2022-12-10T05:39:26;1.40;99.90
13123;DHT22;6627;50.920;12.050;2022-12-10T05:41:53;1.30;99.90
13123;DHT22;6627;50.920;12.050;2022-12-10T05:44:22;1.40;99.90
13123;DHT22;6627;50.920;12.050;2022-12-10T05:46:50;1.40;99.90
13123;DHT22;6627;50.920;12.050;2022-12-10T05:49:19;1.40;99.90
13123;DHT22;6627;50.920;12.050;2022-12-10T05:51:46;1.40;99.90
13123;DHT22;6627;50.920;12.050;2022-12-10T05:54:13;1.40;99.90
13123;DHT22;6627;50.920;12.050;2022-12-10T05:56:40;1.40;99.90
13123;DHT22;6627;50.920;12.050;2022-12-10T05:59:09;1.40;99.90
13123;DHT22;6627;50.920;12.050;2022-12-10T06:01:38;1.40;99.90
13123;DHT22;6627;50.920;12.050;2022-12-10T06:04:06;1.30;99.90
13123;DHT22;6627;50.920;12.050;2022-12-10T06:06:34;1.30;99.90
13123;DHT22;6627;50.920;12.050;2022-12-10T06:09:04;1.30;99.90
13123;DHT22;6627;50.920;12.050;2022-12-10T06:11:32;1.30;99.90
13123;DHT22;6627;50.920;12.050;2022-12-10T06:14:00;1.30;99.90
13123;DHT22;6627;50.920;12.050;2022-12-10T06:16:28;1.30;99.90
13123;DHT22;6627;50.920;12.050;2022-12-10T06:18:58;1.30;99.90
13123;DHT22;6627;50.920;12.050;2022-12-10T06:21:25;1.30;99.90
13123;DHT22;6627;50.920;12.050;2022-12-10T06:23:53;1.30;99.90
13123;DHT22;6627;50.920;12.050;2022-12-10T06:26:22;1.20;99.90
13123;DHT22;6627;50.920;12.050;2022-12-10T06:28:51;1.20;99.90
13123;DHT22;6627;50.920;12.050;2022-12-10T06:31:19;1.20;99.90
13123;DHT22;6627;50.920;12.050;2022-12-10T06:33:47;1.20;99.90
13123;DHT22;6627;50.920;12.050;2022-12-10T06:36:17;1.20;99.90
13123;DHT22;6627;50.920;12.050;2022-12-10T06:38:45;1.10;99.90
13123;DHT22;6627;50.920;12.050;2022-12-10T06:41:16;1.00;99.90
13123;DHT22;6627;50.920;12.050;2022-12-10T06:43:46;1.10;99.90
13123;DHT22;6627;50.920;12.050;2022-12-10T06:46:15;1.20;99.90
13123;DHT22;6627;50.920;12.050;2022-12-10T06:48:44;1.10;99.90
13123;DHT22;6627;50.920;12.050;2022-12-10T06:51:12;1.20;99.90
13123;DHT22;6627;50.920;12.050;2022-12-10T06:53:42;1.20;99.90
13123;DHT22;6627;50.920;12.050;2022-12-10T06:56:12;1.20;99.90
13123;DHT22;6627;50.920;12.050;2022-12-10T06:58:41;1.20;99.90
13123;DHT22;6627;50.920;12.050;2022-12-10T07:01:11;1.10;99.90
13123;DHT22;6627;50.920;12.050;2022-12-10T07:03:39;1.20;99.90
13123;DHT22;6627;50.920;12.050;2022-12-10T07:06:08;1.20;99.90
13123;DHT22;6627;50.920;12.050;2022-12-10T07:08:36;1.10;99.90
13123;DHT22;6627;50.920;12.050;2022-12-10T07:11:06;1.20;99.90
13123;DHT22;6627;50.920;12.050;2022-12-10T07:13:36;1.20;99.90
13123;DHT22;6627;50.920;12.050;2022-12-10T07:16:12;1.20;99.90
13123;DHT22;6627;50.920;12.050;2022-12-10T07:18:40;1.10;99.90
13123;DHT22;6627;50.920;12.050;2022-12-10T07:21:14;1.20;99.90
13123;DHT22;6627;50.920;12.050;2022-12-10T07:23:42;1.10;99.90
13123;DHT22;6627;50.920;12.050;2022-12-10T07:26:10;1.10;99.90
13123;DHT22;6627;50.920;12.050;2022-12-10T07:28:38;1.10;99.90
13123;DHT22;6627;50.920;12.050;2022-12-10T07:31:07;1.10;99.90
13123;DHT22;6627;50.920;12.050;2022-12-10T07:33:36;1.10;99.90
13123;DHT22;6627;50.920;12.050;2022-12-10T07:36:05;1.10;99.90
13123;DHT22;6627;50.920;12.050;2022-12-10T07:38:33;1.10;99.90
13123;DHT22;6627;50.920;12.050;2022-12-10T07:41:02;1.10;99.90
13123;DHT22;6627;50.920;12.050;2022-12-10T07:43:34;1.10;99.90
13123;DHT22;6627;50.920;12.050;2022-12-10T07:46:03;1.10;99.90
13123;DHT22;6627;50.920;12.050;2022-12-10T07:48:33;1.10;99.90
13123;DHT22;6627;50.920;12.050;2022-12-10T07:51:02;1.00;99.90
13123;DHT22;6627;50.920;12.050;2022-12-10T07:53:29;1.10;99.90
13123;DHT22;6627;50.920;12.050;2022-12-10T07:55:57;1.00;99.90
13123;DHT22;6627;50.920;12.050;2022-12-10T07:58:27;1.10;99.90
13123;DHT22;6627;50.920;12.050;2022-12-10T08:00:55;1.10;99.90
13123;DHT22;6627;50.920;12.050;2022-12-10T08:03:23;1.00;99.90
13123;DHT22;6627;50.920;12.050;2022-12-10T08:06:00;0.90;99.90
13123;DHT22;6627;50.920;12.050;2022-12-10T08:08:28;1.00;99.90
13123;DHT22;6627;50.920;12.050;2022-12-10T08:10:55;1.00;99.90
13123;DHT22;6627;50.920;12.050;2022-12-10T08:13:28;1.00;99.90
13123;DHT22;6627;50.920;12.050;2022-12-10T08:16:02;0.90;99.90
13123;DHT22;6627;50.920;12.050;2022-12-10T08:18:30;1.00;99.90
13123;DHT22;6627;50.920;12.050;2022-12-10T08:20:58;1.00;99.90
13123;DHT22;6627;50.920;12.050;2022-12-10T08:23:25;1.00;99.90
13123;DHT22;6627;50.920;12.050;2022-12-10T08:25:52;1.00;99.90
13123;DHT22;6627;50.920;12.050;2022-12-10T08:28:20;1.00;99.90
13123;DHT22;6627;50.920;12.050;2022-12-10T08:30:48;1.10;99.90
13123;DHT22;6627;50.920;12.050;2022-12-10T08:33:17;1.10;99.90
13123;DHT22;6627;50.920;12.050;2022-12-10T08:35:44;1.00;99.90
13123;DHT22;6627;50.920;12.050;2022-12-10T08:38:11;1.00;99.90
13123;DHT22;6627;50.920;12.050;2022-12-10T08:40:39;1.00;99.90
13123;DHT22;6627;50.920;12.050;2022-12-10T08:43:08;1.00;99.90
13123;DHT22;6627;50.920;12.050;2022-12-10T08:45:35;1.00;99.90
13123;DHT22;6627;50.920;12.050;2022-12-10T08:48:03;1.00;99.90
13123;DHT22;6627;50.920;12.050;2022-12-10T08:50:32;1.00;99.90
13123;DHT22;6627;50.920;12.050;2022-12-10T08:52:59;1.00;99.90
13123;DHT22;6627;50.920;12.050;2022-12-10T08:55:27;1.10;99.90
13123;DHT22;6627;50.920;12.050;2022-12-10T08:57:55;1.00;99.90
13123;DHT22;6627;50.920;12.050;2022-12-10T09:00:23;1.00;99.90
13123;DHT22;6627;50.920;12.050;2022-12-10T09:02:50;1.10;99.90
13123;DHT22;6627;50.920;12.050;2022-12-10T09:05:18;1.10;99.90
13123;DHT22;6627;50.920;12.050;2022-12-10T09:07:47;1.10;99.90
13123;DHT22;6627;50.920;12.050;2022-12-10T09:10:15;1.10;99.90
13123;DHT22;6627;50.920;12.050;2022-12-10T09:12:43;1.10;99.90
13123;DHT22;6627;50.920;12.050;2022-12-10T09:15:11;1.20;99.90
13123;DHT22;6627;50.920;12.050;2022-12-10T09:17:38;1.10;99.90
13123;DHT22;6627;50.920;12.050;2022-12-10T09:20:06;1.20;99.90
13123;DHT22;6627;50.920;12.050;2022-12-10T09:22:35;1.20;99.90
13123;DHT22;6627;50.920;12.050;2022-12-10T09:25:06;1.10;99.90
13123;DHT22;6627;50.920;12.050;2022-12-10T09:27:36;1.10;99.90
13123;DHT22;6627;50.920;12.050;2022-12-10T09:30:05;1.10;99.90
13123;DHT22;6627;50.920;12.050;2022-12-10T09:32:33;1.10;99.90
13123;DHT22;6627;50.920;12.050;2022-12-10T09:35:00;1.20;99.90
13123;DHT22;6627;50.920;12.050;2022-12-10T09:37:28;1.10;99.90
13123;DHT22;6627;50.920;12.050;2022-12-10T09:39:55;1.00;99.90
13123;DHT22;6627;50.920;12.050;2022-12-10T09:42:37;1.00;99.90
13123;DHT22;6627;50.920;12.050;2022-12-10T09:45:18;1.10;99.90
13123;DHT22;6627;50.920;12.050;2022-12-10T09:47:58;1.10;99.90
13123;DHT22;6627;50.920;12.050;2022-12-10T09:50:33;1.10;99.90
13123;DHT22;6627;50.920;12.050;2022-12-10T09:53:09;1.00;99.90
13123;DHT22;6627;50.920;12.050;2022-12-10T09:55:44;1.00;99.90
13123;DHT22;6627;50.920;12.050;2022-12-10T09:58:18;1.00;99.90
13123;DHT22;6627;50.920;12.050;2022-12-10T10:00:49;1.00;99.90
13123;DHT22;6627;50.920;12.050;2022-12-10T10:03:19;1.00;99.90
13123;DHT22;6627;50.920;12.050;2022-12-10T10:05:48;1.00;99.90
13123;DHT22;6627;50.920;12.050;2022-12-10T10:08:25;0.90;99.90
13123;DHT22;6627;50.920;12.050;2022-12-10T10:10:56;0.90;99.90
13123;DHT22;6627;50.920;12.050;2022-12-10T10:13:31;0.90;99.90
13123;DHT22;6627;50.920;12.050;2022-12-10T10:16:20;0.90;99.90
13123;DHT22;6627;50.920;12.050;2022-12-10T10:18:55;0.90;99.90
13123;DHT22;6627;50.920;12.050;2022-12-10T10:21:26;1.00;99.90
13123;DHT22;6627;50.920;12.050;2022-12-10T10:23:57;1.00;99.90
13123;DHT22;6627;50.920;12.050;2022-12-10T10:26:25;0.90;99.90
13123;DHT22;6627;50.920;12.050;2022-12-10T10:31:29;0.90;99.90
13123;DHT22;6627;50.920;12.050;2022-12-10T10:34:00;0.80;99.90
13123;DHT22;6627;50.920;12.050;2022-12-10T10:36:32;0.80;99.90
13123;DHT22;6627;50.920;12.050;2022-12-10T10:39:08;0.80;99.90
13123;DHT22;6627;50.920;12.050;2022-12-10T10:41:38;0.70;99.90
13123;DHT22;6627;50.920;12.050;2022-12-10T10:44:15;0.80;99.90
13123;DHT22;6627;50.920;12.050;2022-12-10T10:46:47;0.80;99.90
13123;DHT22;6627;50.920;12.050;2022-12-10T10:49:22;0.80;99.90
13123;DHT22;6627;50.920;12.050;2022-12-10T10:51:53;0.80;99.90
13123;DHT22;6627;50.920;12.050;2022-12-10T10:54:34;0.80;99.90
13123;DHT22;6627;50.920;12.050;2022-12-10T10:57:10;0.80;99.90
13123;DHT22;6627;50.920;12.050;2022-12-10T10:59:44;0.70;99.90
13123;DHT22;6627;50.920;12.050;2022-12-10T11:02:19;0.80;99.90
13123;DHT22;6627;50.920;12.050;2022-12-10T11:04:51;0.90;99.90
13123;DHT22;6627;50.920;12.050;2022-12-10T11:07:23;0.90;99.90
13123;DHT22;6627;50.920;12.050;2022-12-10T11:09:59;0.70;99.90
13123;DHT22;6627;50.920;12.050;2022-12-10T11:12:33;0.80;99.90
13123;DHT22;6627;50.920;12.050;2022-12-10T11:18:09;0.90;99.90
13123;DHT22;6627;50.920;12.050;2022-12-10T11:20:58;0.70;99.90
13123;DHT22;6627;50.920;12.050;2022-12-10T11:23:28;0.80;99.90
13123;DHT22;6627;50.920;12.050;2022-12-10T11:26:05;0.90;99.90
13123;DHT22;6627;50.920;12.050;2022-12-10T11:28:54;0.90;99.90
13123;DHT22;6627;50.920;12.050;2022-12-10T11:31:46;0.90;99.90
13123;DHT22;6627;50.920;12.050;2022-12-10T11:34:33;0.80;99.90
13123;DHT22;6627;50.920;12.050;2022-12-10T11:37:13;0.90;99.90
13123;DHT22;6627;50.920;12.050;2022-12-10T11:40:00;0.90;99.90
13123;DHT22;6627;50.920;12.050;2022-12-10T11:42:48;1.00;99.90
13123;DHT22;6627;50.920;12.050;2022-12-10T11:45:25;0.90;99.90
13123;DHT22;6627;50.920;12.050;2022-12-10T11:48:10;1.00;99.90
13123;DHT22;6627;50.920;12.050;2022-12-10T11:50:52;1.00;99.90
13123;DHT22;6627;50.920;12.050;2022-12-10T11:53:40;0.90;99.90
13123;DHT22;6627;50.920;12.050;2022-12-10T11:56:22;0.80;99.90
13123;DHT22;6627;50.920;12.050;2022-12-10T11:58:59;0.80;99.90
13123;DHT22;6627;50.920;12.050;2022-12-10T12:01:46;0.90;99.90
13123;DHT22;6627;50.920;12.050;2022-12-10T12:04:39;0.80;99.90
13123;DHT22;6627;50.920;12.050;2022-12-10T12:07:36;0.80;99.90
13123;DHT22;6627;50.920;12.050;2022-12-10T12:10:41;0.70;99.90
13123;DHT22;6627;50.920;12.050;2022-12-10T12:13:22;0.80;99.90
13123;DHT22;6627;50.920;12.050;2022-12-10T12:15:57;0.80;99.90
13123;DHT22;6627;50.920;12.050;2022-12-10T12:18:36;0.90;99.90
13123;DHT22;6627;50.920;12.050;2022-12-10T12:21:14;0.90;99.90
13123;DHT22;6627;50.920;12.050;2022-12-10T12:23:49;0.90;99.90
13123;DHT22;6627;50.920;12.050;2022-12-10T12:26:23;0.90;99.90
13123;DHT22;6627;50.920;12.050;2022-12-10T12:28:59;0.80;99.90
13123;DHT22;6627;50.920;12.050;2022-12-10T12:31:36;0.80;99.90
13123;DHT22;6627;50.920;12.050;2022-12-10T12:34:13;0.90;99.90
13123;DHT22;6627;50.920;12.050;2022-12-10T12:36:47;0.80;99.90
13123;DHT22;6627;50.920;12.050;2022-12-10T12:39:23;0.70;99.90
13123;DHT22;6627;50.920;12.050;2022-12-10T12:42:03;0.90;99.90
13123;DHT22;6627;50.920;12.050;2022-12-10T12:44:48;0.70;99.90
13123;DHT22;6627;50.920;12.050;2022-12-10T12:47:32;0.90;99.90
13123;DHT22;6627;50.920;12.050;2022-12-10T12:50:16;1.00;99.90
13123;DHT22;6627;50.920;12.050;2022-12-10T12:52:57;1.00;99.90
13123;DHT22;6627;50.920;12.050;2022-12-10T12:55:31;0.90;99.90
13123;DHT22;6627;50.920;12.050;2022-12-10T12:58:13;0.90;99.90
13123;DHT22;6627;50.920;12.050;2022-12-10T13:00:50;0.80;99.90
13123;DHT22;6627;50.920;12.050;2022-12-10T13:06:13;0.80;99.90
13123;DHT22;6627;50.920;12.050;2022-12-10T13:08:45;1.10;99.90
13123;DHT22;6627;50.920;12.050;2022-12-10T13:11:24;0.80;99.90
13123;DHT22;6627;50.920;12.050;2022-12-10T13:14:15;0.80;99.90
13123;DHT22;6627;50.920;12.050;2022-12-10T13:17:24;0.90;99.90
13123;DHT22;6627;50.920;12.050;2022-12-10T13:19:58;0.90;99.90
13123;DHT22;6627;50.920;12.050;2022-12-10T13:22:57;0.80;99.90
13123;DHT22;6627;50.920;12.050;2022-12-10T13:25:56;0.70;99.90
13123;DHT22;6627;50.920;12.050;2022-12-10T13:28:32;0.80;99.90
13123;DHT22;6627;50.920;12.050;2022-12-10T13:31:33;0.70;99.90
13123;DHT22;6627;50.920;12.050;2022-12-10T13:34:30;0.70;99.90
13123;DHT22;6627;50.920;12.050;2022-12-10T13:37:16;0.70;99.90
13123;DHT22;6627;50.920;12.050;2022-12-10T13:39:59;0.60;99.90
13123;DHT22;6627;50.920;12.050;2022-12-10T13:42:33;0.70;99.90
13123;DHT22;6627;50.920;12.050;2022-12-10T13:45:26;0.70;99.90
13123;DHT22;6627;50.920;12.050;2022-12-10T13:48:29;0.70;99.90
13123;DHT22;6627;50.920;12.050;2022-12-10T13:51:06;0.70;99.90
13123;DHT22;6627;50.920;12.050;2022-12-10T13:54:07;0.70;99.90
13123;DHT22;6627;50.920;12.050;2022-12-10T13:56:52;0.60;99.90
13123;DHT22;6627;50.920;12.050;2022-12-10T13:59:37;0.60;99.90
13123;DHT22;6627;50.920;12.050;2022-12-10T14:05:32;0.50;99.90
13123;DHT22;6627;50.920;12.050;2022-12-10T14:08:15;0.50;99.90
13123;DHT22;6627;50.920;12.050;2022-12-10T14:10:45;0.50;99.90
13123;DHT22;6627;50.920;12.050;2022-12-10T14:13:16;0.60;99.90
13123;DHT22;6627;50.920;12.050;2022-12-10T14:15:53;0.50;99.90
13123;DHT22;6627;50.920;12.050;2022-12-10T14:18:22;0.60;99.90
13123;DHT22;6627;50.920;12.050;2022-12-10T14:20:52;0.60;99.90
13123;DHT22;6627;50.920;12.050;2022-12-10T14:23:24;0.50;99.90
13123;DHT22;6627;50.920;12.050;2022-12-10T14:26:04;0.50;99.90
13123;DHT22;6627;50.920;12.050;2022-12-10T14:28:38;0.50;99.90
13123;DHT22;6627;50.920;12.050;2022-12-10T14:31:12;0.50;99.90
13123;DHT22;6627;50.920;12.050;2022-12-10T14:33:44;0.60;99.90
13123;DHT22;6627;50.920;12.050;2022-12-10T14:36:22;0.60;99.90
13123;DHT22;6627;50.920;12.050;2022-12-10T14:38:54;0.60;99.90
13123;DHT22;6627;50.920;12.050;2022-12-10T14:41:23;0.50;99.90
13123;DHT22;6627;50.920;12.050;2022-12-10T14:43:53;0.60;99.90
13123;DHT22;6627;50.920;12.050;2022-12-10T14:46:27;0.60;99.90
13123;DHT22;6627;50.920;12.050;2022-12-10T14:48:57;0.40;99.90
13123;DHT22;6627;50.920;12.050;2022-12-10T14:51:30;0.50;99.90
13123;DHT22;6627;50.920;12.050;2022-12-10T14:53:59;0.50;99.90
13123;DHT22;6627;50.920;12.050;2022-12-10T14:56:30;0.50;99.90
13123;DHT22;6627;50.920;12.050;2022-12-10T14:59:04;0.50;99.90
13123;DHT22;6627;50.920;12.050;2022-12-10T15:01:42;0.60;99.90
13123;DHT22;6627;50.920;12.050;2022-12-10T15:04:15;0.60;99.90
13123;DHT22;6627;50.920;12.050;2022-12-10T15:06:45;0.60;99.90
13123;DHT22;6627;50.920;12.050;2022-12-10T15:09:16;0.60;99.90
13123;DHT22;6627;50.920;12.050;2022-12-10T15:11:52;0.60;99.90
13123;DHT22;6627;50.920;12.050;2022-12-10T15:14:21;0.60;99.90
13123;DHT22;6627;50.920;12.050;2022-12-10T15:16:51;0.60;99.90
13123;DHT22;6627;50.920;12.050;2022-12-10T15:19:24;0.60;99.90
13123;DHT22;6627;50.920;12.050;2022-12-10T15:22:00;0.50;99.90
13123;DHT22;6627;50.920;12.050;2022-12-10T15:24:36;0.50;99.90
13123;DHT22;6627;50.920;12.050;2022-12-10T15:27:15;0.60;99.90
13123;DHT22;6627;50.920;12.050;2022-12-10T15:29:44;0.50;99.90
13123;DHT22;6627;50.920;12.050;2022-12-10T15:32:15;0.50;99.90
13123;DHT22;6627;50.920;12.050;2022-12-10T15:34:48;0.50;99.90
13123;DHT22;6627;50.920;12.050;2022-12-10T15:37:22;0.50;99.90
13123;DHT22;6627;50.920;12.050;2022-12-10T15:39:54;0.60;99.90
13123;DHT22;6627;50.920;12.050;2022-12-10T15:42:38;0.60;99.90
13123;DHT22;6627;50.920;12.050;2022-12-10T15:45:19;0.50;99.90
13123;DHT22;6627;50.920;12.050;2022-12-10T15:47:50;0.50;99.90
13123;DHT22;6627;50.920;12.050;2022-12-10T15:50:18;0.40;99.90
13123;DHT22;6627;50.920;12.050;2022-12-10T15:52:46;0.30;99.90
13123;DHT22;6627;50.920;12.050;2022-12-10T15:55:14;0.40;99.90
13123;DHT22;6627;50.920;12.050;2022-12-10T15:57:42;0.50;99.90
13123;DHT22;6627;50.920;12.050;2022-12-10T16:00:16;0.50;99.90
13123;DHT22;6627;50.920;12.050;2022-12-10T16:02:47;0.50;99.90
13123;DHT22;6627;50.920;12.050;2022-12-10T16:05:21;0.50;99.90
13123;DHT22;6627;50.920;12.050;2022-12-10T16:07:52;0.50;99.90
13123;DHT22;6627;50.920;12.050;2022-12-10T16:10:23;0.60;99.90
13123;DHT22;6627;50.920;12.050;2022-12-10T16:12:58;0.50;99.90
13123;DHT22;6627;50.920;12.050;2022-12-10T16:15:29;0.50;99.90
13123;DHT22;6627;50.920;12.050;2022-12-10T16:18:03;0.50;99.90
13123;DHT22;6627;50.920;12.050;2022-12-10T16:20:32;0.50;99.90
13123;DHT22;6627;50.920;12.050;2022-12-10T16:22:59;0.50;99.90
13123;DHT22;6627;50.920;12.050;2022-12-10T16:25:28;0.50;99.90
13123;DHT22;6627;50.920;12.050;2022-12-10T16:27:59;0.50;99.90
13123;DHT22;6627;50.920;12.050;2022-12-10T16:30:33;0.60;99.90
13123;DHT22;6627;50.920;12.050;2022-12-10T16:33:03;0.60;99.90